BLACK1 EFRO-EFRO
Flight info
| Callsign | BLACK1 |
|---|---|
| Flight time | 0h 47m |
| Altitude | 21000 |
| Route | IBSAN Y75 EVIMI KTAP TUGPU Y86 OSLIT ROAP |
| Aircraft | F35/M-SDGIRUY/C |
Departure
| Time | 2026-04-27 14:02 |
|---|---|
| Airport | Rovaniemi Airport (EFRO) |
Arrival
| Time | 2026-04-27 14:49 |
|---|---|
| Airport | Rovaniemi Airport (EFRO) |
| Time | Latitude | Longitude | Altitude | Speed | Heading |
|---|---|---|---|---|---|
| 2026-04-27 13:55 | 66.57001 | 25.83186 | 654 ft | 0 kts | 261° |
| 2026-04-27 13:59 | 66.57000 | 25.83175 | 654 ft | 2 kts | 248° |
| 2026-04-27 13:59 | 66.56983 | 25.83160 | 654 ft | 5 kts | 178° |
| 2026-04-27 14:00 | 66.56921 | 25.83150 | 651 ft | 12 kts | 207° |
| 2026-04-27 14:00 | 66.56856 | 25.83033 | 655 ft | 12 kts | 217° |
| 2026-04-27 14:00 | 66.56783 | 25.82895 | 654 ft | 14 kts | 217° |
| 2026-04-27 14:00 | 66.56692 | 25.82725 | 651 ft | 19 kts | 216° |
| 2026-04-27 14:01 | 66.56580 | 25.82516 | 650 ft | 21 kts | 217° |
| 2026-04-27 14:01 | 66.56454 | 25.82276 | 648 ft | 24 kts | 218° |
| 2026-04-27 14:01 | 66.56310 | 25.81992 | 642 ft | 29 kts | 218° |
| 2026-04-27 14:01 | 66.56137 | 25.81657 | 632 ft | 34 kts | 211° |
| 2026-04-27 14:02 | 66.55927 | 25.81441 | 630 ft | 26 kts | 182° |
| 2026-04-27 14:02 | 66.55805 | 25.81706 | 639 ft | 14 kts | 107° |
| 2026-04-27 14:02 | 66.56061 | 25.82233 | 636 ft | 143 kts | 36° |
| 2026-04-27 14:02 | 66.57152 | 25.84281 | 2299 ft | 214 kts | 32° |
| 2026-04-27 14:03 | 66.58706 | 25.85716 | 6296 ft | 277 kts | 0° |
| 2026-04-27 14:03 | 66.60791 | 25.83954 | 10805 ft | 376 kts | 326° |
| 2026-04-27 14:03 | 66.62406 | 25.78104 | 14915 ft | 439 kts | 287° |
| 2026-04-27 14:03 | 66.63264 | 25.70446 | 19241 ft | 481 kts | 289° |
| 2026-04-27 14:04 | 66.64229 | 25.62011 | 21703 ft | 510 kts | 288° |
| 2026-04-27 14:04 | 66.65177 | 25.53364 | 21350 ft | 510 kts | 288° |
| 2026-04-27 14:04 | 66.66138 | 25.44684 | 21150 ft | 511 kts | 288° |
| 2026-04-27 14:04 | 66.67102 | 25.36077 | 21091 ft | 510 kts | 288° |
| 2026-04-27 14:05 | 66.68044 | 25.27412 | 21099 ft | 509 kts | 288° |
| 2026-04-27 14:05 | 66.68994 | 25.18783 | 21106 ft | 511 kts | 288° |
| 2026-04-27 14:05 | 66.69922 | 25.10248 | 21110 ft | 509 kts | 287° |
| 2026-04-27 14:05 | 66.71125 | 25.01878 | 21132 ft | 504 kts | 301° |
| 2026-04-27 14:06 | 66.73267 | 24.94912 | 21172 ft | 501 kts | 320° |
| 2026-04-27 14:06 | 66.76167 | 24.90131 | 21204 ft | 499 kts | 339° |
| 2026-04-27 14:06 | 66.79487 | 24.88066 | 21220 ft | 494 kts | 357° |
| 2026-04-27 14:06 | 66.82909 | 24.88249 | 21200 ft | 491 kts | 2° |
| 2026-04-27 14:07 | 66.85171 | 24.88493 | 21164 ft | 489 kts | 2° |
| 2026-04-27 14:07 | 66.88594 | 24.88730 | 21154 ft | 492 kts | 1° |
| 2026-04-27 14:07 | 66.92025 | 24.88993 | 20409 ft | 486 kts | 2° |
| 2026-04-27 14:07 | 66.95391 | 24.89295 | 19631 ft | 479 kts | 2° |
| 2026-04-27 14:08 | 66.99810 | 24.89632 | 18627 ft | 478 kts | 2° |
| 2026-04-27 14:08 | 67.02053 | 24.89820 | 18093 ft | 476 kts | 2° |
| 2026-04-27 14:08 | 67.05320 | 24.90093 | 17245 ft | 466 kts | 2° |
| 2026-04-27 14:08 | 67.08491 | 24.90346 | 16434 ft | 463 kts | 2° |
| 2026-04-27 14:09 | 67.11686 | 24.90611 | 15635 ft | 459 kts | 2° |
| 2026-04-27 14:09 | 67.14836 | 24.90869 | 14853 ft | 448 kts | 2° |
| 2026-04-27 14:09 | 67.17944 | 24.91124 | 14090 ft | 439 kts | 2° |
| 2026-04-27 14:09 | 67.20852 | 24.91365 | 13247 ft | 398 kts | 2° |
| 2026-04-27 14:10 | 67.23529 | 24.91581 | 12392 ft | 372 kts | 2° |
| 2026-04-27 14:10 | 67.26037 | 24.92086 | 11559 ft | 351 kts | 6° |
| 2026-04-27 14:10 | 67.28408 | 24.92691 | 10756 ft | 335 kts | 4° |
| 2026-04-27 14:10 | 67.30685 | 24.92999 | 9958 ft | 321 kts | 2° |
| 2026-04-27 14:11 | 67.32873 | 24.93368 | 9102 ft | 310 kts | 4° |
| 2026-04-27 14:11 | 67.34992 | 24.93800 | 8274 ft | 301 kts | 4° |
| 2026-04-27 14:11 | 67.37053 | 24.94166 | 7463 ft | 293 kts | 4° |
| 2026-04-27 14:11 | 67.39067 | 24.94508 | 6682 ft | 287 kts | 4° |
| 2026-04-27 14:12 | 67.41045 | 24.94873 | 5858 ft | 282 kts | 4° |
| 2026-04-27 14:12 | 67.42985 | 24.95234 | 5055 ft | 277 kts | 4° |
| 2026-04-27 14:12 | 67.44888 | 24.95575 | 4361 ft | 268 kts | 4° |
| 2026-04-27 14:12 | 67.46678 | 24.95900 | 4038 ft | 248 kts | 4° |
| 2026-04-27 14:13 | 67.48333 | 24.96202 | 3830 ft | 233 kts | 4° |
| 2026-04-27 14:13 | 67.49933 | 24.96325 | 3837 ft | 232 kts | 358° |
| 2026-04-27 14:13 | 67.51541 | 24.95882 | 3812 ft | 231 kts | 352° |
| 2026-04-27 14:13 | 67.53140 | 24.95224 | 3819 ft | 233 kts | 352° |
| 2026-04-27 14:14 | 67.54734 | 24.94503 | 3819 ft | 233 kts | 349° |
| 2026-04-27 14:14 | 67.56317 | 24.93540 | 3759 ft | 236 kts | 347° |
| 2026-04-27 14:14 | 67.57865 | 24.92538 | 3391 ft | 221 kts | 347° |
| 2026-04-27 14:14 | 67.59300 | 24.91610 | 3031 ft | 204 kts | 347° |
| 2026-04-27 14:15 | 67.60618 | 24.90759 | 2699 ft | 184 kts | 348° |
| 2026-04-27 14:15 | 67.61755 | 24.90020 | 2459 ft | 148 kts | 348° |
| 2026-04-27 14:15 | 67.62663 | 24.89436 | 2210 ft | 126 kts | 348° |
| 2026-04-27 14:15 | 67.63504 | 24.88897 | 2025 ft | 134 kts | 347° |
| 2026-04-27 14:16 | 67.64441 | 24.88301 | 1822 ft | 134 kts | 347° |
| 2026-04-27 14:16 | 67.65282 | 24.87767 | 1594 ft | 120 kts | 347° |
| 2026-04-27 14:16 | 67.66165 | 24.87206 | 1374 ft | 139 kts | 347° |
| 2026-04-27 14:16 | 67.67118 | 24.86598 | 1143 ft | 139 kts | 346° |
| 2026-04-27 14:17 | 67.68022 | 24.86029 | 911 ft | 132 kts | 346° |
| 2026-04-27 14:17 | 67.68917 | 24.85460 | 719 ft | 126 kts | 345° |
| 2026-04-27 14:17 | 67.69807 | 24.84907 | 752 ft | 154 kts | 345° |
| 2026-04-27 14:17 | 67.71171 | 24.83974 | 2276 ft | 217 kts | 346° |
| 2026-04-27 14:18 | 67.72700 | 24.82906 | 3185 ft | 231 kts | 346° |
| 2026-04-27 14:18 | 67.74250 | 24.81807 | 3536 ft | 232 kts | 345° |
| 2026-04-27 14:18 | 67.75587 | 24.79505 | 3715 ft | 241 kts | 309° |
| 2026-04-27 14:18 | 67.76086 | 24.75248 | 3803 ft | 258 kts | 272° |
| 2026-04-27 14:19 | 67.75488 | 24.70736 | 3844 ft | 273 kts | 236° |
| 2026-04-27 14:19 | 67.73993 | 24.67749 | 3875 ft | 282 kts | 201° |
| 2026-04-27 14:19 | 67.72030 | 24.67227 | 3883 ft | 284 kts | 173° |
| 2026-04-27 14:19 | 67.70088 | 24.68002 | 3845 ft | 282 kts | 167° |
| 2026-04-27 14:20 | 67.68152 | 24.68992 | 3825 ft | 283 kts | 169° |
| 2026-04-27 14:20 | 67.66202 | 24.69691 | 3813 ft | 284 kts | 172° |
| 2026-04-27 14:20 | 67.64280 | 24.70288 | 3821 ft | 284 kts | 171° |
| 2026-04-27 14:20 | 67.62331 | 24.71030 | 3822 ft | 282 kts | 170° |
| 2026-04-27 14:21 | 67.60385 | 24.71777 | 3825 ft | 282 kts | 171° |
| 2026-04-27 14:21 | 67.58435 | 24.72461 | 3818 ft | 282 kts | 172° |
| 2026-04-27 14:21 | 67.56498 | 24.73148 | 3823 ft | 283 kts | 171° |
| 2026-04-27 14:21 | 67.54557 | 24.73862 | 3831 ft | 283 kts | 171° |
| 2026-04-27 14:22 | 67.52613 | 24.74565 | 3832 ft | 280 kts | 171° |
| 2026-04-27 14:22 | 67.50787 | 24.76126 | 3868 ft | 278 kts | 141° |
| 2026-04-27 14:22 | 67.49585 | 24.79840 | 3887 ft | 265 kts | 105° |
| 2026-04-27 14:22 | 67.49417 | 24.84437 | 3908 ft | 250 kts | 70° |
| 2026-04-27 14:23 | 67.50030 | 24.88627 | 3880 ft | 244 kts | 59° |
| 2026-04-27 14:23 | 67.50946 | 24.92254 | 3889 ft | 234 kts | 33° |
| 2026-04-27 14:23 | 67.52450 | 24.93684 | 3902 ft | 232 kts | 4° |
| 2026-04-27 14:23 | 67.54068 | 24.93700 | 3899 ft | 234 kts | 356° |
| 2026-04-27 14:24 | 67.55678 | 24.93227 | 3836 ft | 233 kts | 353° |
| 2026-04-27 14:24 | 67.57288 | 24.92661 | 3546 ft | 231 kts | 353° |
| 2026-04-27 14:24 | 67.58866 | 24.91899 | 3159 ft | 231 kts | 347° |
| 2026-04-27 14:24 | 67.60398 | 24.90903 | 2754 ft | 219 kts | 348° |
| 2026-04-27 14:25 | 67.61823 | 24.89993 | 2393 ft | 203 kts | 348° |
| 2026-04-27 14:25 | 67.63136 | 24.89152 | 2046 ft | 184 kts | 347° |
| 2026-04-27 14:25 | 67.64365 | 24.88374 | 1784 ft | 192 kts | 347° |
| 2026-04-27 14:25 | 67.65604 | 24.87583 | 1484 ft | 167 kts | 347° |
| 2026-04-27 14:26 | 67.66647 | 24.86911 | 1236 ft | 151 kts | 346° |
| 2026-04-27 14:26 | 67.67654 | 24.86266 | 1000 ft | 139 kts | 346° |
| 2026-04-27 14:26 | 67.68533 | 24.85709 | 808 ft | 135 kts | 345° |
| 2026-04-27 14:26 | 67.69429 | 24.85130 | 647 ft | 117 kts | 345° |
| 2026-04-27 14:27 | 67.70545 | 24.84449 | 1781 ft | 203 kts | 349° |
| 2026-04-27 14:27 | 67.71864 | 24.84847 | 4768 ft | 205 kts | 28° |
| 2026-04-27 14:27 | 67.72619 | 24.87921 | 8463 ft | 209 kts | 70° |
| 2026-04-27 14:27 | 67.72296 | 24.91956 | 12697 ft | 271 kts | 127° |
| 2026-04-27 14:28 | 67.70285 | 24.95151 | 16320 ft | 406 kts | 159° |
| 2026-04-27 14:28 | 67.67177 | 24.98093 | 19497 ft | 526 kts | 159° |
| 2026-04-27 14:28 | 67.63725 | 25.01161 | 20160 ft | 528 kts | 160° |
| 2026-04-27 14:28 | 67.60229 | 25.03866 | 20197 ft | 525 kts | 161° |
| 2026-04-27 14:29 | 67.56762 | 25.06996 | 20175 ft | 525 kts | 158° |
| 2026-04-27 14:29 | 67.53350 | 25.10371 | 19946 ft | 522 kts | 160° |
| 2026-04-27 14:29 | 67.49870 | 25.13292 | 20032 ft | 524 kts | 162° |
| 2026-04-27 14:29 | 67.46363 | 25.15997 | 20119 ft | 527 kts | 163° |
| 2026-04-27 14:30 | 67.42884 | 25.18867 | 20062 ft | 525 kts | 157° |
| 2026-04-27 14:30 | 67.39461 | 25.22206 | 20039 ft | 524 kts | 159° |
| 2026-04-27 14:30 | 67.36094 | 25.25856 | 20014 ft | 525 kts | 156° |
| 2026-04-27 14:30 | 67.32760 | 25.29367 | 20026 ft | 525 kts | 157° |
| 2026-04-27 14:31 | 67.29347 | 25.32744 | 19986 ft | 526 kts | 161° |
| 2026-04-27 14:31 | 67.25758 | 25.35056 | 19976 ft | 525 kts | 169° |
| 2026-04-27 14:31 | 67.22167 | 25.36113 | 19978 ft | 527 kts | 177° |
| 2026-04-27 14:31 | 67.18501 | 25.36254 | 19951 ft | 529 kts | 180° |
| 2026-04-27 14:32 | 67.14818 | 25.36346 | 19907 ft | 524 kts | 177° |
| 2026-04-27 14:32 | 67.11144 | 25.36899 | 20004 ft | 535 kts | 174° |
| 2026-04-27 14:32 | 67.07439 | 25.37733 | 20032 ft | 533 kts | 174° |
| 2026-04-27 14:32 | 67.03755 | 25.38534 | 20029 ft | 531 kts | 174° |
| 2026-04-27 14:33 | 67.00083 | 25.39303 | 20026 ft | 530 kts | 174° |
| 2026-04-27 14:33 | 66.96381 | 25.39572 | 19855 ft | 529 kts | 180° |
| 2026-04-27 14:33 | 66.92737 | 25.39688 | 19076 ft | 525 kts | 176° |
| 2026-04-27 14:33 | 66.89134 | 25.40324 | 18315 ft | 513 kts | 175° |
| 2026-04-27 14:34 | 66.85554 | 25.40722 | 17466 ft | 513 kts | 180° |
| 2026-04-27 14:34 | 66.82028 | 25.40202 | 16633 ft | 512 kts | 185° |
| 2026-04-27 14:34 | 66.78495 | 25.39826 | 15809 ft | 508 kts | 179° |
| 2026-04-27 14:34 | 66.75000 | 25.39963 | 15010 ft | 494 kts | 179° |
| 2026-04-27 14:35 | 66.71561 | 25.39879 | 14242 ft | 496 kts | 181° |
| 2026-04-27 14:35 | 66.68185 | 25.39743 | 13447 ft | 491 kts | 179° |
| 2026-04-27 14:35 | 66.64790 | 25.39721 | 12600 ft | 479 kts | 180° |
| 2026-04-27 14:35 | 66.61501 | 25.39614 | 11799 ft | 476 kts | 180° |
| 2026-04-27 14:36 | 66.58660 | 25.39562 | 10957 ft | 364 kts | 179° |
| 2026-04-27 14:36 | 66.56165 | 25.39526 | 10154 ft | 353 kts | 180° |
| 2026-04-27 14:36 | 66.53739 | 25.39457 | 9293 ft | 344 kts | 180° |
| 2026-04-27 14:36 | 66.51355 | 25.39404 | 8446 ft | 338 kts | 179° |
| 2026-04-27 14:37 | 66.49028 | 25.39562 | 7619 ft | 330 kts | 168° |
| 2026-04-27 14:37 | 66.46990 | 25.41601 | 6874 ft | 314 kts | 142° |
| 2026-04-27 14:37 | 66.45318 | 25.44982 | 6104 ft | 303 kts | 128° |
| 2026-04-27 14:37 | 66.44124 | 25.49161 | 5320 ft | 288 kts | 106° |
| 2026-04-27 14:38 | 66.43829 | 25.53850 | 4548 ft | 264 kts | 75° |
| 2026-04-27 14:38 | 66.44468 | 25.57902 | 3863 ft | 244 kts | 52° |
| 2026-04-27 14:38 | 66.45412 | 25.61261 | 3440 ft | 229 kts | 49° |
| 2026-04-27 14:38 | 66.46486 | 25.63948 | 3103 ft | 209 kts | 35° |
| 2026-04-27 14:39 | 66.47589 | 25.66068 | 2774 ft | 191 kts | 33° |
| 2026-04-27 14:39 | 66.48621 | 25.68050 | 2458 ft | 185 kts | 33° |
| 2026-04-27 14:39 | 66.49622 | 25.69976 | 2141 ft | 182 kts | 33° |
| 2026-04-27 14:39 | 66.50577 | 25.71828 | 1896 ft | 160 kts | 33° |
| 2026-04-27 14:40 | 66.51414 | 25.73436 | 1660 ft | 144 kts | 32° |
| 2026-04-27 14:40 | 66.52207 | 25.74941 | 1470 ft | 143 kts | 32° |
| 2026-04-27 14:40 | 66.52997 | 25.76446 | 1264 ft | 147 kts | 31° |
| 2026-04-27 14:40 | 66.53851 | 25.78061 | 1057 ft | 160 kts | 30° |
| 2026-04-27 14:41 | 66.54758 | 25.79782 | 837 ft | 157 kts | 30° |
| 2026-04-27 14:41 | 66.55572 | 25.81323 | 657 ft | 138 kts | 31° |
| 2026-04-27 14:41 | 66.56349 | 25.82774 | 759 ft | 184 kts | 31° |
| 2026-04-27 14:41 | 66.57447 | 25.84980 | 2587 ft | 205 kts | 35° |
| 2026-04-27 14:42 | 66.58642 | 25.87380 | 3470 ft | 222 kts | 27° |
| 2026-04-27 14:42 | 66.60107 | 25.88007 | 3833 ft | 222 kts | 347° |
| 2026-04-27 14:42 | 66.61381 | 25.85820 | 4003 ft | 236 kts | 308° |
| 2026-04-27 14:42 | 66.61806 | 25.81753 | 4082 ft | 254 kts | 270° |
| 2026-04-27 14:43 | 66.61134 | 25.77537 | 4099 ft | 269 kts | 235° |
| 2026-04-27 14:43 | 66.59815 | 25.73786 | 4094 ft | 354 kts | 228° |
| 2026-04-27 14:43 | 66.57753 | 25.68458 | 4125 ft | 436 kts | 229° |
| 2026-04-27 14:43 | 66.55730 | 25.62765 | 4130 ft | 437 kts | 231° |
| 2026-04-27 14:44 | 66.53816 | 25.57500 | 4099 ft | 390 kts | 229° |
| 2026-04-27 14:44 | 66.52059 | 25.52783 | 4053 ft | 352 kts | 230° |
| 2026-04-27 14:44 | 66.50484 | 25.48451 | 4033 ft | 320 kts | 231° |
| 2026-04-27 14:44 | 66.49049 | 25.44538 | 4012 ft | 290 kts | 229° |
| 2026-04-27 14:45 | 66.47404 | 25.42028 | 4024 ft | 281 kts | 194° |
| 2026-04-27 14:45 | 66.45493 | 25.42084 | 4056 ft | 276 kts | 158° |
| 2026-04-27 14:45 | 66.43944 | 25.44616 | 4065 ft | 263 kts | 122° |
| 2026-04-27 14:45 | 66.43185 | 25.48615 | 4068 ft | 252 kts | 98° |
| 2026-04-27 14:46 | 66.43123 | 25.52806 | 4069 ft | 238 kts | 68° |
| 2026-04-27 14:46 | 66.43775 | 25.56522 | 3925 ft | 234 kts | 53° |
| 2026-04-27 14:46 | 66.44657 | 25.59709 | 3458 ft | 216 kts | 48° |
| 2026-04-27 14:46 | 66.45611 | 25.62364 | 3082 ft | 193 kts | 35° |
| 2026-04-27 14:47 | 66.46649 | 25.64344 | 2810 ft | 189 kts | 32° |
| 2026-04-27 14:47 | 66.47703 | 25.66356 | 2611 ft | 191 kts | 34° |
| 2026-04-27 14:47 | 66.48767 | 25.68397 | 2401 ft | 194 kts | 33° |
| 2026-04-27 14:47 | 66.49821 | 25.70402 | 2114 ft | 185 kts | 33° |
| 2026-04-27 14:48 | 66.50823 | 25.72312 | 1821 ft | 177 kts | 33° |
| 2026-04-27 14:48 | 66.52694 | 25.75851 | 1324 ft | 159 kts | 32° |
| 2026-04-27 14:48 | 66.53558 | 25.77491 | 1102 ft | 151 kts | 30° |
| 2026-04-27 14:49 | 66.54357 | 25.79020 | 946 ft | 142 kts | 31° |
| 2026-04-27 14:49 | 66.55159 | 25.80529 | 725 ft | 161 kts | 31° |
| 2026-04-27 14:49 | 66.56022 | 25.82172 | 639 ft | 130 kts | 39° |
| 2026-04-27 14:49 | 66.56563 | 25.83192 | 633 ft | 48 kts | 35° |
| 2026-04-27 14:50 | 66.56708 | 25.83367 | 640 ft | 19 kts | 360° |
| 2026-04-27 14:50 | 66.56822 | 25.83329 | 642 ft | 14 kts | 351° |
| 2026-04-27 14:50 | 66.56910 | 25.83298 | 645 ft | 11 kts | 353° |
| 2026-04-27 14:50 | 66.56977 | 25.83277 | 650 ft | 8 kts | 353° |
| 2026-04-27 14:51 | 66.57003 | 25.83227 | 653 ft | 6 kts | 270° |
| 2026-04-27 14:51 | 66.57002 | 25.83190 | 654 ft | 0 kts | 262° |